sensor_id;sensor_type;location;lat;lon;timestamp;pressure;altitude;pressure_sealevel;temperature;humidity
7337;BME280;54510;42.016;23.098;2022-12-11T00:00:49;-21670.59;;;19.57;66.51
7337;BME280;54510;42.016;23.098;2022-12-11T00:03:15;-21655.63;;;19.02;67.43
7337;BME280;54510;42.016;23.098;2022-12-11T00:05:43;-21673.06;;;19.66;66.43
7337;BME280;54510;42.016;23.098;2022-12-11T00:08:09;-21669.50;;;19.53;67.02
7337;BME280;54510;42.016;23.098;2022-12-11T00:10:34;-21673.06;;;19.66;66.76
7337;BME280;54510;42.016;23.098;2022-12-11T00:13:00;-21675.13;;;19.73;66.69
7337;BME280;54510;42.016;23.098;2022-12-11T00:15:25;-21671.28;;;19.59;66.63
7337;BME280;54510;42.016;23.098;2022-12-11T00:17:51;-21671.16;;;19.59;66.91
7337;BME280;54510;42.016;23.098;2022-12-11T00:20:16;-21666.22;;;19.41;66.90
7337;BME280;54510;42.016;23.098;2022-12-11T00:22:42;-21672.53;;;19.64;66.80
7337;BME280;54510;42.016;23.098;2022-12-11T00:25:07;-21671.84;;;19.61;66.88
7337;BME280;54510;42.016;23.098;2022-12-11T00:27:33;-21678.00;;;19.84;66.34
7337;BME280;54510;42.016;23.098;2022-12-11T00:29:59;-21668.13;;;19.48;67.18
7337;BME280;54510;42.016;23.098;2022-12-11T00:32:25;-21667.88;;;19.47;67.78
7337;BME280;54510;42.016;23.098;2022-12-11T00:34:50;-21670.19;;;19.55;68.01
7337;BME280;54510;42.016;23.098;2022-12-11T00:37:16;-21671.44;;;19.60;67.74
7337;BME280;54510;42.016;23.098;2022-12-11T00:39:41;-21666.34;;;19.41;67.91
7337;BME280;54510;42.016;23.098;2022-12-11T00:42:07;-21675.00;;;19.73;67.57
7337;BME280;54510;42.016;23.098;2022-12-11T00:44:33;-21669.22;;;19.52;67.92
7337;BME280;54510;42.016;23.098;2022-12-11T00:46:59;-21671.16;;;19.59;67.84
7337;BME280;54510;42.016;23.098;2022-12-11T00:49:24;-21679.38;;;19.89;67.43
7337;BME280;54510;42.016;23.098;2022-12-11T00:51:50;-21678.97;;;19.88;67.37
7337;BME280;54510;42.016;23.098;2022-12-11T00:54:15;-21675.28;;;19.74;68.03
7337;BME280;54510;42.016;23.098;2022-12-11T00:56:40;-21677.47;;;19.82;67.82
7337;BME280;54510;42.016;23.098;2022-12-11T00:59:06;-21673.06;;;19.66;67.59
7337;BME280;54510;42.016;23.098;2022-12-11T01:01:32;-21675.00;;;19.73;67.59
7337;BME280;54510;42.016;23.098;2022-12-11T01:03:57;-21671.16;;;19.59;67.85
7337;BME280;54510;42.016;23.098;2022-12-11T01:06:24;-21677.19;;;19.81;67.28
7337;BME280;54510;42.016;23.098;2022-12-11T01:08:50;-21665.78;;;19.39;67.83
7337;BME280;54510;42.016;23.098;2022-12-11T01:11:35;-21666.34;;;19.41;68.07
7337;BME280;54510;42.016;23.098;2022-12-11T01:14:00;-21676.22;;;19.78;67.13
7337;BME280;54510;42.016;23.098;2022-12-11T01:16:25;-21676.38;;;19.78;67.44
7337;BME280;54510;42.016;23.098;2022-12-11T01:18:51;-21673.75;;;19.68;67.38
7337;BME280;54510;42.016;23.098;2022-12-11T01:21:16;-21671.69;;;19.61;68.85
7337;BME280;54510;42.016;23.098;2022-12-11T01:23:42;-21670.06;;;19.55;69.55
7337;BME280;54510;42.016;23.098;2022-12-11T01:26:13;-21663.88;;;19.32;71.21
7337;BME280;54510;42.016;23.098;2022-12-11T01:28:40;-21659.63;;;19.16;71.84
7337;BME280;54510;42.016;23.098;2022-12-11T01:31:14;-21672.38;;;19.63;71.19
7337;BME280;54510;42.016;23.098;2022-12-11T01:33:40;-21671.84;;;19.61;72.36
7337;BME280;54510;42.016;23.098;2022-12-11T01:36:24;-21663.19;;;19.29;72.25
7337;BME280;54510;42.016;23.098;2022-12-11T01:38:49;-21659.22;;;19.15;73.03
7337;BME280;54510;42.016;23.098;2022-12-11T01:41:16;-21667.31;;;19.45;72.29
7337;BME280;54510;42.016;23.098;2022-12-11T01:46:33;-21660.44;;;19.19;73.21
7337;BME280;54510;42.016;23.098;2022-12-11T01:49:00;-21659.75;;;19.17;73.55
7337;BME280;54510;42.016;23.098;2022-12-11T01:51:28;-21664.28;;;19.33;72.94
7337;BME280;54510;42.016;23.098;2022-12-11T01:54:02;-21667.59;;;19.46;73.18
7337;BME280;54510;42.016;23.098;2022-12-11T01:56:30;-21664.84;;;19.36;72.68
7337;BME280;54510;42.016;23.098;2022-12-11T01:58:58;-21670.47;;;19.56;72.25
7337;BME280;54510;42.016;23.098;2022-12-11T02:01:37;-21664.16;;;19.33;73.16
7337;BME280;54510;42.016;23.098;2022-12-11T02:04:03;-21664.28;;;19.33;72.74
7337;BME280;54510;42.016;23.098;2022-12-11T02:06:42;-21664.84;;;19.36;72.42
7337;BME280;54510;42.016;23.098;2022-12-11T02:09:12;-21669.22;;;19.52;72.00
7337;BME280;54510;42.016;23.098;2022-12-11T02:15:02;-21666.22;;;19.41;72.03
7337;BME280;54510;42.016;23.098;2022-12-11T02:17:42;-21667.88;;;19.47;71.35
7337;BME280;54510;42.016;23.098;2022-12-11T02:25:30;-21665.38;;;19.38;71.13
7337;BME280;54510;42.016;23.098;2022-12-11T02:28:07;-21662.09;;;19.25;71.52
7337;BME280;54510;42.016;23.098;2022-12-11T02:30:35;-21668.69;;;19.50;70.55
7337;BME280;54510;42.016;23.098;2022-12-11T02:33:02;-21673.50;;;19.67;70.19
7337;BME280;54510;42.016;23.098;2022-12-11T02:35:32;-21661.28;;;19.22;70.92
7337;BME280;54510;42.016;23.098;2022-12-11T02:38:04;-21667.59;;;19.46;70.26
7337;BME280;54510;42.016;23.098;2022-12-11T02:40:34;-21673.34;;;19.67;69.49
7337;BME280;54510;42.016;23.098;2022-12-11T02:43:03;-21675.81;;;19.76;69.00
7337;BME280;54510;42.016;23.098;2022-12-11T02:45:31;-21675.41;;;19.75;69.51
7337;BME280;54510;42.016;23.098;2022-12-11T02:48:00;-21676.38;;;19.78;69.29
7337;BME280;54510;42.016;23.098;2022-12-11T02:50:28;-21679.53;;;19.90;69.17
7337;BME280;54510;42.016;23.098;2022-12-11T02:52:55;-21684.47;;;20.08;68.43
7337;BME280;54510;42.016;23.098;2022-12-11T02:55:22;-21683.22;;;20.03;68.08
7337;BME280;54510;42.016;23.098;2022-12-11T02:58:01;-21689.25;;;20.26;67.36
7337;BME280;54510;42.016;23.098;2022-12-11T03:00:28;-21690.50;;;20.30;67.19
7337;BME280;54510;42.016;23.098;2022-12-11T03:02:53;-21692.00;;;20.36;66.91
7337;BME280;54510;42.016;23.098;2022-12-11T03:05:19;-21685.00;;;20.10;67.23
7337;BME280;54510;42.016;23.098;2022-12-11T03:07:45;-21677.59;;;19.83;68.19
7337;BME280;54510;42.016;23.098;2022-12-11T03:10:13;-21675.53;;;19.75;68.46
7337;BME280;54510;42.016;23.098;2022-12-11T03:12:42;-21674.19;;;19.70;68.77
7337;BME280;54510;42.016;23.098;2022-12-11T03:15:11;-21667.44;;;19.45;69.58
7337;BME280;54510;42.016;23.098;2022-12-11T03:18:03;-21672.53;;;19.64;69.14
7337;BME280;54510;42.016;23.098;2022-12-11T03:20:44;-21671.16;;;19.59;68.89
7337;BME280;54510;42.016;23.098;2022-12-11T03:23:17;-21663.19;;;19.29;69.04
7337;BME280;54510;42.016;23.098;2022-12-11T03:26:00;-21666.06;;;19.40;69.29
7337;BME280;54510;42.016;23.098;2022-12-11T03:31:05;-21668.28;;;19.48;69.17
7337;BME280;54510;42.016;23.098;2022-12-11T03:33:35;-21670.34;;;19.56;69.01
7337;BME280;54510;42.016;23.098;2022-12-11T03:36:07;-21672.13;;;19.62;68.63
7337;BME280;54510;42.016;23.098;2022-12-11T03:39:17;-21674.19;;;19.70;68.20
7337;BME280;54510;42.016;23.098;2022-12-11T03:41:41;-21667.16;;;19.44;68.76
7337;BME280;54510;42.016;23.098;2022-12-11T03:44:08;-21681.44;;;19.97;67.33
7337;BME280;54510;42.016;23.098;2022-12-11T03:46:38;-21680.75;;;19.94;67.17
7337;BME280;54510;42.016;23.098;2022-12-11T03:49:25;-21679.66;;;19.90;67.16
7337;BME280;54510;42.016;23.098;2022-12-11T03:51:54;-21683.22;;;20.03;66.82
7337;BME280;54510;42.016;23.098;2022-12-11T03:54:21;-21678.00;;;19.84;67.25
7337;BME280;54510;42.016;23.098;2022-12-11T03:56:48;-21676.91;;;19.80;67.19
7337;BME280;54510;42.016;23.098;2022-12-11T03:59:15;-21685.69;;;20.13;66.52
7337;BME280;54510;42.016;23.098;2022-12-11T04:01:40;-21686.78;;;20.17;65.89
7337;BME280;54510;42.016;23.098;2022-12-11T04:04:06;-21681.03;;;19.95;66.78
7337;BME280;54510;42.016;23.098;2022-12-11T04:06:31;-21681.59;;;19.97;66.76
7337;BME280;54510;42.016;23.098;2022-12-11T04:08:57;-21680.47;;;19.93;66.48
7337;BME280;54510;42.016;23.098;2022-12-11T04:11:22;-21675.41;;;19.75;66.99
7337;BME280;54510;42.016;23.098;2022-12-11T04:14:06;-21677.47;;;19.82;67.11
7337;BME280;54510;42.016;23.098;2022-12-11T04:16:51;-21674.03;;;19.69;67.53
7337;BME280;54510;42.016;23.098;2022-12-11T04:19:18;-21665.53;;;19.38;68.58
7337;BME280;54510;42.016;23.098;2022-12-11T04:22:03;-21669.22;;;19.52;68.05
7337;BME280;54510;42.016;23.098;2022-12-11T04:24:47;-21675.81;;;19.76;67.37
7337;BME280;54510;42.016;23.098;2022-12-11T04:27:14;-21669.50;;;19.53;67.98
7337;BME280;54510;42.016;23.098;2022-12-11T04:30:00;-21669.09;;;19.51;67.85
7337;BME280;54510;42.016;23.098;2022-12-11T04:32:25;-21672.38;;;19.63;67.46
7337;BME280;54510;42.016;23.098;2022-12-11T04:34:50;-21666.63;;;19.42;67.99
7337;BME280;54510;42.016;23.098;2022-12-11T04:37:16;-21661.00;;;19.21;68.68
7337;BME280;54510;42.016;23.098;2022-12-11T04:39:41;-21659.63;;;19.16;68.77
7337;BME280;54510;42.016;23.098;2022-12-11T04:42:07;-21661.94;;;19.25;68.73
7337;BME280;54510;42.016;23.098;2022-12-11T04:44:33;-21670.06;;;19.55;67.92
7337;BME280;54510;42.016;23.098;2022-12-11T04:46:58;-21664.00;;;19.32;68.70
7337;BME280;54510;42.016;23.098;2022-12-11T04:49:23;-21672.13;;;19.62;67.80
7337;BME280;54510;42.016;23.098;2022-12-11T04:51:49;-21670.06;;;19.55;68.45
7337;BME280;54510;42.016;23.098;2022-12-11T04:54:14;-21672.81;;;19.65;67.78
7337;BME280;54510;42.016;23.098;2022-12-11T04:56:39;-21676.38;;;19.78;67.40
7337;BME280;54510;42.016;23.098;2022-12-11T04:59:05;-21667.88;;;19.47;68.00
7337;BME280;54510;42.016;23.098;2022-12-11T05:01:30;-21681.59;;;19.97;66.94
7337;BME280;54510;42.016;23.098;2022-12-11T05:03:58;-21676.38;;;19.78;66.72
7337;BME280;54510;42.016;23.098;2022-12-11T05:06:23;-21672.13;;;19.62;67.09
7337;BME280;54510;42.016;23.098;2022-12-11T05:08:48;-21671.97;;;19.62;67.36
7337;BME280;54510;42.016;23.098;2022-12-11T05:11:14;-21667.72;;;19.46;67.78
7337;BME280;54510;42.016;23.098;2022-12-11T05:13:40;-21670.34;;;19.56;67.75
7337;BME280;54510;42.016;23.098;2022-12-11T05:16:07;-21666.75;;;19.43;67.89
7337;BME280;54510;42.016;23.098;2022-12-11T05:18:33;-21678.00;;;19.84;66.89
7337;BME280;54510;42.016;23.098;2022-12-11T05:21:04;-21673.91;;;19.69;66.39
7337;BME280;54510;42.016;23.098;2022-12-11T05:23:31;-21676.38;;;19.78;66.53
7337;BME280;54510;42.016;23.098;2022-12-11T05:26:00;-21676.09;;;19.77;66.80
7337;BME280;54510;42.016;23.098;2022-12-11T05:28:28;-21684.31;;;20.07;66.17
7337;BME280;54510;42.016;23.098;2022-12-11T05:31:06;-21686.25;;;20.15;65.51
7337;BME280;54510;42.016;23.098;2022-12-11T05:33:32;-21690.50;;;20.30;65.13
7337;BME280;54510;42.016;23.098;2022-12-11T05:35:58;-21690.09;;;20.29;64.98
7337;BME280;54510;42.016;23.098;2022-12-11T05:38:24;-21687.34;;;20.19;65.13
7337;BME280;54510;42.016;23.098;2022-12-11T05:41:01;-21682.94;;;20.02;64.80
7337;BME280;54510;42.016;23.098;2022-12-11T05:43:29;-21692.16;;;20.36;64.38
7337;BME280;54510;42.016;23.098;2022-12-11T05:45:56;-21678.69;;;19.87;65.46
7337;BME280;54510;42.016;23.098;2022-12-11T05:48:28;-21684.03;;;20.06;64.88
7337;BME280;54510;42.016;23.098;2022-12-11T05:50:58;-21687.88;;;20.21;64.39
7337;BME280;54510;42.016;23.098;2022-12-11T05:53:24;-21687.19;;;20.18;64.19
7337;BME280;54510;42.016;23.098;2022-12-11T05:55:49;-21686.94;;;20.17;63.88
7337;BME280;54510;42.016;23.098;2022-12-11T05:58:14;-21686.94;;;20.17;63.95
7337;BME280;54510;42.016;23.098;2022-12-11T06:00:41;-21690.22;;;20.29;63.72
7337;BME280;54510;42.016;23.098;2022-12-11T06:03:06;-21696.66;;;20.53;63.33
7337;BME280;54510;42.016;23.098;2022-12-11T06:05:37;-21688.84;;;20.24;63.44
7337;BME280;54510;42.016;23.098;2022-12-11T06:08:03;-21689.25;;;20.26;63.53
7337;BME280;54510;42.016;23.098;2022-12-11T06:10:28;-21675.53;;;19.75;65.69
7337;BME280;54510;42.016;23.098;2022-12-11T06:12:53;-21685.97;;;20.13;64.35
7337;BME280;54510;42.016;23.098;2022-12-11T06:15:19;-21688.72;;;20.24;63.68
7337;BME280;54510;42.016;23.098;2022-12-11T06:17:44;-21681.31;;;19.96;64.92
7337;BME280;54510;42.016;23.098;2022-12-11T06:20:10;-21678.84;;;19.87;65.34
7337;BME280;54510;42.016;23.098;2022-12-11T06:22:35;-21674.31;;;19.70;65.60
7337;BME280;54510;42.016;23.098;2022-12-11T06:25:01;-21683.22;;;20.03;64.89
7337;BME280;54510;42.016;23.098;2022-12-11T06:27:26;-21684.88;;;20.09;64.45
7337;BME280;54510;42.016;23.098;2022-12-11T06:29:51;-21679.38;;;19.89;64.92
7337;BME280;54510;42.016;23.098;2022-12-11T06:32:17;-21682.94;;;20.02;65.35
7337;BME280;54510;42.016;23.098;2022-12-11T06:34:42;-21682.13;;;19.99;65.71
7337;BME280;54510;42.016;23.098;2022-12-11T06:37:07;-21679.94;;;19.91;65.38
7337;BME280;54510;42.016;23.098;2022-12-11T06:39:33;-21670.59;;;19.57;66.27
7337;BME280;54510;42.016;23.098;2022-12-11T06:41:58;-21675.00;;;19.73;65.86
7337;BME280;54510;42.016;23.098;2022-12-11T06:44:24;-21676.91;;;19.80;65.96
7337;BME280;54510;42.016;23.098;2022-12-11T06:46:49;-21676.63;;;19.79;65.38
7337;BME280;54510;42.016;23.098;2022-12-11T06:49:15;-21683.22;;;20.03;64.79
7337;BME280;54510;42.016;23.098;2022-12-11T06:51:40;-21685.84;;;20.13;63.97
7337;BME280;54510;42.016;23.098;2022-12-11T06:54:05;-21681.16;;;19.96;63.82
7337;BME280;54510;42.016;23.098;2022-12-11T06:56:33;-21681.31;;;19.96;63.98
7337;BME280;54510;42.016;23.098;2022-12-11T06:58:58;-21677.75;;;19.83;64.47
7337;BME280;54510;42.016;23.098;2022-12-11T07:01:26;-21685.97;;;20.13;63.25
7337;BME280;54510;42.016;23.098;2022-12-11T07:03:56;-21680.91;;;19.95;63.21
7337;BME280;54510;42.016;23.098;2022-12-11T07:06:22;-21681.59;;;19.97;63.46
7337;BME280;54510;42.016;23.098;2022-12-11T07:08:49;-21678.28;;;19.85;63.99
7337;BME280;54510;42.016;23.098;2022-12-11T07:11:15;-21684.47;;;20.08;63.19
7337;BME280;54510;42.016;23.098;2022-12-11T07:13:41;-21687.47;;;20.19;62.98
7337;BME280;54510;42.016;23.098;2022-12-11T07:16:08;-21689.66;;;20.27;63.42
7337;BME280;54510;42.016;23.098;2022-12-11T07:18:39;-21689.25;;;20.26;62.54
7337;BME280;54510;42.016;23.098;2022-12-11T07:21:05;-21685.00;;;20.10;62.80
7337;BME280;54510;42.016;23.098;2022-12-11T07:23:33;-21685.97;;;20.13;62.54
7337;BME280;54510;42.016;23.098;2022-12-11T07:26:03;-21688.72;;;20.24;62.76
7337;BME280;54510;42.016;23.098;2022-12-11T07:28:28;-21692.41;;;20.37;61.81
7337;BME280;54510;42.016;23.098;2022-12-11T07:30:54;-21700.38;;;20.67;60.92
7337;BME280;54510;42.016;23.098;2022-12-11T07:33:19;-21695.56;;;20.49;61.14
7337;BME280;54510;42.016;23.098;2022-12-11T07:35:45;-21697.50;;;20.56;61.71
7337;BME280;54510;42.016;23.098;2022-12-11T07:38:10;-21694.63;;;20.45;60.92
7337;BME280;54510;42.016;23.098;2022-12-11T07:40:36;-21699.41;;;20.63;60.62
7337;BME280;54510;42.016;23.098;2022-12-11T07:43:01;-21696.41;;;20.52;61.44
7337;BME280;54510;42.016;23.098;2022-12-11T07:45:27;-21701.88;;;20.72;59.87
7337;BME280;54510;42.016;23.098;2022-12-11T07:47:53;-21702.16;;;20.73;59.94
7337;BME280;54510;42.016;23.098;2022-12-11T07:50:18;-21712.69;;;21.12;59.55
7337;BME280;54510;42.016;23.098;2022-12-11T07:52:44;-21714.47;;;21.19;59.22
7337;BME280;54510;42.016;23.098;2022-12-11T07:55:09;-21717.63;;;21.31;59.21
7337;BME280;54510;42.016;23.098;2022-12-11T07:57:35;-21700.22;;;20.66;59.35
7337;BME280;54510;42.016;23.098;2022-12-11T08:00:01;-21698.59;;;20.60;59.87
7337;BME280;54510;42.016;23.098;2022-12-11T08:02:26;-21698.84;;;20.61;58.97
7337;BME280;54510;42.016;23.098;2022-12-11T08:04:52;-21699.41;;;20.63;59.16
7337;BME280;54510;42.016;23.098;2022-12-11T08:07:17;-21717.75;;;21.31;57.12
7337;BME280;54510;42.016;23.098;2022-12-11T08:09:42;-21720.22;;;21.40;56.93
7337;BME280;54510;42.016;23.098;2022-12-11T08:12:08;-21714.75;;;21.20;56.52
7337;BME280;54510;42.016;23.098;2022-12-11T08:14:33;-21719.13;;;21.36;56.14
7337;BME280;54510;42.016;23.098;2022-12-11T08:16:59;-21719.94;;;21.39;55.92
7337;BME280;54510;42.016;23.098;2022-12-11T08:19:26;-21721.47;;;21.45;55.26
7337;BME280;54510;42.016;23.098;2022-12-11T08:21:52;-21727.63;;;21.67;55.43
7337;BME280;54510;42.016;23.098;2022-12-11T08:24:17;-21735.97;;;21.98;55.15
7337;BME280;54510;42.016;23.098;2022-12-11T08:26:46;-21737.19;;;22.03;54.46
7337;BME280;54510;42.016;23.098;2022-12-11T08:29:11;-21747.31;;;22.40;54.00
7337;BME280;54510;42.016;23.098;2022-12-11T08:31:38;-21749.50;;;22.49;53.55
7337;BME280;54510;42.016;23.098;2022-12-11T08:34:04;-21750.59;;;22.53;53.14
7337;BME280;54510;42.016;23.098;2022-12-11T08:36:30;-21739.78;;;22.13;53.22
7337;BME280;54510;42.016;23.098;2022-12-11T08:38:55;-21752.09;;;22.58;52.38
7337;BME280;54510;42.016;23.098;2022-12-11T08:41:24;-21759.06;;;22.84;51.83
7337;BME280;54510;42.016;23.098;2022-12-11T08:43:50;-21762.63;;;22.97;51.80
7337;BME280;54510;42.016;23.098;2022-12-11T08:46:20;-21765.06;;;23.06;50.92
7337;BME280;54510;42.016;23.098;2022-12-11T08:48:46;-21756.34;;;22.74;51.15
7337;BME280;54510;42.016;23.098;2022-12-11T08:51:14;-21758.25;;;22.81;50.31
7337;BME280;54510;42.016;23.098;2022-12-11T08:53:40;-21758.94;;;22.83;50.40
7337;BME280;54510;42.016;23.098;2022-12-11T08:56:11;-21752.50;;;22.60;50.15
7337;BME280;54510;42.016;23.098;2022-12-11T08:58:37;-21754.56;;;22.67;50.57
7337;BME280;54510;42.016;23.098;2022-12-11T09:01:13;-21763.72;;;23.01;49.24
7337;BME280;54510;42.016;23.098;2022-12-11T09:03:41;-21760.69;;;22.90;49.65
7337;BME280;54510;42.016;23.098;2022-12-11T09:06:09;-21759.75;;;22.87;50.19
7337;BME280;54510;42.016;23.098;2022-12-11T09:08:35;-21761.38;;;22.93;50.47
7337;BME280;54510;42.016;23.098;2022-12-11T09:11:11;-21769.16;;;23.21;50.88
7337;BME280;54510;42.016;23.098;2022-12-11T09:13:39;-21765.06;;;23.06;51.16
7337;BME280;54510;42.016;23.098;2022-12-11T09:16:07;-21756.06;;;22.73;51.09
7337;BME280;54510;42.016;23.098;2022-12-11T09:18:33;-21748.13;;;22.43;51.89
7337;BME280;54510;42.016;23.098;2022-12-11T09:21:00;-21746.91;;;22.39;52.15
7337;BME280;54510;42.016;23.098;2022-12-11T09:23:26;-21750.59;;;22.53;52.10
7337;BME280;54510;42.016;23.098;2022-12-11T09:25:52;-21746.75;;;22.38;52.22
7337;BME280;54510;42.016;23.098;2022-12-11T09:28:17;-21747.72;;;22.42;51.58
7337;BME280;54510;42.016;23.098;2022-12-11T09:30:43;-21745.41;;;22.33;51.85
7337;BME280;54510;42.016;23.098;2022-12-11T09:33:08;-21748.94;;;22.46;51.87
7337;BME280;54510;42.016;23.098;2022-12-11T09:35:34;-21753.03;;;22.62;50.91
7337;BME280;54510;42.016;23.098;2022-12-11T09:37:59;-21760.44;;;22.89;51.07
7337;BME280;54510;42.016;23.098;2022-12-11T09:40:25;-21755.91;;;22.72;51.08
7337;BME280;54510;42.016;23.098;2022-12-11T09:42:53;-21755.38;;;22.70;50.97
7337;BME280;54510;42.016;23.098;2022-12-11T09:45:21;-21753.72;;;22.64;53.05
7337;BME280;54510;42.016;23.098;2022-12-11T09:47:50;-21758.94;;;22.83;52.35
7337;BME280;54510;42.016;23.098;2022-12-11T09:50:29;-21747.44;;;22.41;52.14
7337;BME280;54510;42.016;23.098;2022-12-11T09:55:31;-21747.59;;;22.41;51.78
7337;BME280;54510;42.016;23.098;2022-12-11T10:00:47;-21748.13;;;22.43;51.55
7337;BME280;54510;42.016;23.098;2022-12-11T10:14:46;-21744.03;;;22.28;51.93
7337;BME280;54510;42.016;23.098;2022-12-11T10:17:27;-21750.72;;;22.53;52.12
7337;BME280;54510;42.016;23.098;2022-12-11T10:19:57;-21747.84;;;22.42;51.78
7337;BME280;54510;42.016;23.098;2022-12-11T10:22:29;-21750.72;;;22.53;52.33
7337;BME280;54510;42.016;23.098;2022-12-11T10:25:01;-21750.72;;;22.53;52.17
7337;BME280;54510;42.016;23.098;2022-12-11T10:27:33;-21747.03;;;22.39;52.33
7337;BME280;54510;42.016;23.098;2022-12-11T10:35:17;-21741.97;;;22.21;53.83
7337;BME280;54510;42.016;23.098;2022-12-11T10:37:43;-21746.63;;;22.38;53.88
7337;BME280;54510;42.016;23.098;2022-12-11T10:40:09;-21752.09;;;22.58;52.32
7337;BME280;54510;42.016;23.098;2022-12-11T10:42:36;-21757.16;;;22.77;52.15
7337;BME280;54510;42.016;23.098;2022-12-11T10:45:03;-21757.69;;;22.79;51.97
7337;BME280;54510;42.016;23.098;2022-12-11T10:47:29;-21763.97;;;23.02;51.45
7337;BME280;54510;42.016;23.098;2022-12-11T10:49:58;-21759.34;;;22.85;51.67
7337;BME280;54510;42.016;23.098;2022-12-11T10:52:41;-21759.34;;;22.85;52.43
7337;BME280;54510;42.016;23.098;2022-12-11T10:55:21;-21761.13;;;22.92;52.43
7337;BME280;54510;42.016;23.098;2022-12-11T10:57:59;-21753.59;;;22.64;51.98
7337;BME280;54510;42.016;23.098;2022-12-11T11:00:38;-21730.75;;;21.79;54.90
7337;BME280;54510;42.016;23.098;2022-12-11T11:03:17;-21734.19;;;21.92;54.70
7337;BME280;54510;42.016;23.098;2022-12-11T11:05:44;-21733.09;;;21.88;55.53
7337;BME280;54510;42.016;23.098;2022-12-11T11:08:18;-21734.03;;;21.91;55.25
7337;BME280;54510;42.016;23.098;2022-12-11T11:10:54;-21731.72;;;21.83;55.36
7337;BME280;54510;42.016;23.098;2022-12-11T11:13:28;-21728.28;;;21.70;55.72
7337;BME280;54510;42.016;23.098;2022-12-11T11:15:59;-21732.81;;;21.87;56.25
7337;BME280;54510;42.016;23.098;2022-12-11T11:18:26;-21732.81;;;21.87;55.95
7337;BME280;54510;42.016;23.098;2022-12-11T11:20:53;-21730.06;;;21.77;56.38
7337;BME280;54510;42.016;23.098;2022-12-11T11:23:19;-21729.66;;;21.75;56.96
7337;BME280;54510;42.016;23.098;2022-12-11T11:25:53;-21726.13;;;21.62;55.28
7337;BME280;54510;42.016;23.098;2022-12-11T11:28:23;-21720.38;;;21.41;56.17
7337;BME280;54510;42.016;23.098;2022-12-11T11:30:59;-21726.25;;;21.62;55.28
7337;BME280;54510;42.016;23.098;2022-12-11T11:33:26;-21724.88;;;21.57;55.12
7337;BME280;54510;42.016;23.098;2022-12-11T11:35:59;-21725.44;;;21.59;55.33
7337;BME280;54510;42.016;23.098;2022-12-11T11:38:35;-21716.41;;;21.26;57.32
7337;BME280;54510;42.016;23.098;2022-12-11T11:41:12;-21721.88;;;21.46;56.82
7337;BME280;54510;42.016;23.098;2022-12-11T11:43:46;-21720.38;;;21.41;56.47
7337;BME280;54510;42.016;23.098;2022-12-11T11:46:16;-21714.63;;;21.19;56.62
7337;BME280;54510;42.016;23.098;2022-12-11T11:51:18;-21720.63;;;21.42;57.41
7337;BME280;54510;42.016;23.098;2022-12-11T11:53:49;-21719.41;;;21.37;55.88
7337;BME280;54510;42.016;23.098;2022-12-11T11:56:25;-21713.50;;;21.15;56.73
7337;BME280;54510;42.016;23.098;2022-12-11T12:01:35;-21709.53;;;21.01;56.88
7337;BME280;54510;42.016;23.098;2022-12-11T12:04:03;-21707.75;;;20.94;56.75
7337;BME280;54510;42.016;23.098;2022-12-11T12:17:51;-21693.94;;;20.43;59.45
7337;BME280;54510;42.016;23.098;2022-12-11T12:25:43;-21699.97;;;20.65;58.91
7337;BME280;54510;42.016;23.098;2022-12-11T12:33:56;-21689.41;;;20.26;60.95
7337;BME280;54510;42.016;23.098;2022-12-11T12:47:14;-21686.09;;;20.14;62.49
7337;BME280;54510;42.016;23.098;2022-12-11T12:49:45;-21692.00;;;20.36;62.14
7337;BME280;54510;42.016;23.098;2022-12-11T12:52:25;-21674.19;;;19.70;64.80
7337;BME280;54510;42.016;23.098;2022-12-11T12:54:56;-21674.72;;;19.72;65.26
7337;BME280;54510;42.016;23.098;2022-12-11T12:57:41;-21677.75;;;19.83;65.24
7337;BME280;54510;42.016;23.098;2022-12-11T13:00:09;-21677.59;;;19.83;65.09
7337;BME280;54510;42.016;23.098;2022-12-11T13:02:37;-21674.72;;;19.72;65.56
7337;BME280;54510;42.016;23.098;2022-12-11T13:05:26;-21671.16;;;19.59;65.99
7337;BME280;54510;42.016;23.098;2022-12-11T13:07:59;-21675.53;;;19.75;65.81
7337;BME280;54510;42.016;23.098;2022-12-11T13:10:36;-21674.03;;;19.69;65.83
7337;BME280;54510;42.016;23.098;2022-12-11T13:13:04;-21671.84;;;19.61;65.48
7337;BME280;54510;42.016;23.098;2022-12-11T13:15:38;-21665.78;;;19.39;66.61
7337;BME280;54510;42.016;23.098;2022-12-11T13:18:31;-21672.25;;;19.63;66.50
7337;BME280;54510;42.016;23.098;2022-12-11T13:20:59;-21671.28;;;19.59;66.70
7337;BME280;54510;42.016;23.098;2022-12-11T13:23:29;-21660.16;;;19.18;67.91
7337;BME280;54510;42.016;23.098;2022-12-11T13:25:58;-21665.38;;;19.38;66.98
7337;BME280;54510;42.016;23.098;2022-12-11T13:28:53;-21670.88;;;19.58;66.54
7337;BME280;54510;42.016;23.098;2022-12-11T13:31:24;-21674.72;;;19.72;66.19
7337;BME280;54510;42.016;23.098;2022-12-11T13:33:54;-21674.72;;;19.72;66.19
7337;BME280;54510;42.016;23.098;2022-12-11T13:36:28;-21673.22;;;19.66;66.44
7337;BME280;54510;42.016;23.098;2022-12-11T13:39:07;-21671.97;;;19.62;66.67
7337;BME280;54510;42.016;23.098;2022-12-11T13:41:44;-21671.97;;;19.62;67.09
7337;BME280;54510;42.016;23.098;2022-12-11T13:44:17;-21670.06;;;19.55;67.62
7337;BME280;54510;42.016;23.098;2022-12-11T13:46:44;-21672.13;;;19.62;67.54
7337;BME280;54510;42.016;23.098;2022-12-11T13:49:19;-21673.22;;;19.66;67.58
7337;BME280;54510;42.016;23.098;2022-12-11T13:51:54;-21671.00;;;19.58;67.64
7337;BME280;54510;42.016;23.098;2022-12-11T13:54:20;-21669.91;;;19.54;67.52
7337;BME280;54510;42.016;23.098;2022-12-11T13:59:36;-21676.91;;;19.80;67.23
7337;BME280;54510;42.016;23.098;2022-12-11T14:02:09;-21674.59;;;19.71;67.00
7337;BME280;54510;42.016;23.098;2022-12-11T14:04:38;-21668.81;;;19.50;67.76
7337;BME280;54510;42.016;23.098;2022-12-11T14:07:08;-21668.69;;;19.50;68.64
7337;BME280;54510;42.016;23.098;2022-12-11T14:09:38;-21670.34;;;19.56;68.35
7337;BME280;54510;42.016;23.098;2022-12-11T14:12:14;-21674.59;;;19.71;68.09
7337;BME280;54510;42.016;23.098;2022-12-11T14:14:50;-21671.97;;;19.62;67.63
7337;BME280;54510;42.016;23.098;2022-12-11T14:17:25;-21675.00;;;19.73;66.52